• Join FlightAware (Why Join?)
  • Login
  • US Flag 
05:38AM EDT


 

Airport Tracker/Info


-or-


 

Live Flight TrackerFlight Track Log ✈ N789EX ✈ 15-Aug-2014 ✈ KBFI - KMWH

Flight Track Log - Related Links

Times and Time Zones

All times are in EDT time to prevent confusion due to time zone crossing. See the N789EX flight status page for this flight to view local times or setup timezone preferences in your user account.

Time Position Orientation Groundspeed Altitude Reporting Facility
EDT Latitude Longitude Course Direction KTS MPH feet Rate Location/Type
03:37PM 47.4383 -122.2031 247° West 248 285 4,000  Level Seattle Center
03:42PM 47.5300 -122.3020 247° West  Level Estimated
03:42PM 47.8505 -122.2240 333° Northwest 385 443 17,700  Level FlightAware ADS-B
03:43PM 47.8840 -122.2490 333° Northwest 390 449 18,400 2,040 Climbing FlightAware ADS-B
03:43PM 47.8916 -122.2541 336° Northwest 391 450 18,600 2,520 Climbing FlightAware ADS-B (CYVR)
03:43PM 47.8959 -122.2570 338° Northwest 391 450 18,700 2,220 Climbing FlightAware ADS-B
03:43PM 47.9070 -122.2620 345° North 392 451 18,900 1,800 Climbing FlightAware ADS-B
03:43PM 47.9195 -122.2650 355° North 393 452 19,100 1,500 Climbing FlightAware ADS-B
03:43PM 47.9228 -122.2646 North 394 453 19,200 1,500 Climbing FlightAware ADS-B (CYVR)
03:43PM 47.9333 -122.2630 North 394 453 19,300 1,680 Climbing FlightAware ADS-B
03:43PM 47.9415 -122.2610 15° North 395 455 19,400 1,980 Climbing FlightAware ADS-B
03:43PM 47.9495 -122.2566 21° North 396 456 19,600 1,680 Climbing FlightAware ADS-B (KPAE)
03:43PM 47.9522 -122.2550 22° Northeast 396 456 19,600 1,980 Level FlightAware ADS-B
03:43PM 47.9698 -122.2420 28° Northeast 398 458 20,000 2,040 Climbing FlightAware ADS-B
03:44PM 47.9998 -122.2166 29° Northeast 402 463 20,600 1,920 Climbing FlightAware ADS-B (KPAE)
03:44PM 48.0187 -122.2010 29° Northeast 404 465 21,000 1,920 Climbing FlightAware ADS-B
03:44PM 48.0528 -122.1721 31° Northeast 409 471 21,700 1,920 Climbing FlightAware ADS-B (CYWH)
03:44PM 48.0745 -122.1500 38° Northeast 410 472 22,100 2,220 Climbing FlightAware ADS-B
03:44PM 48.0806 -122.1430 41° Northeast 411 473 22,300 2,460 Climbing FlightAware ADS-B
03:45PM 48.0916 -122.1270 46° Northeast 412 474 22,600 1,980 Climbing FlightAware ADS-B
03:45PM 48.0967 -122.1190 49° Northeast 413 475 22,700 1,680 Climbing FlightAware ADS-B
03:45PM 48.1083 -122.0960 55° Northeast 416 479 23,000 1,860 Climbing FlightAware ADS-B
03:45PM 48.1144 -122.0810 60° Northeast 417 480 23,200 1,680 Climbing FlightAware ADS-B
03:45PM 48.1039 -122.1054 60° Northeast 417 480 23,200 840 Level FlightAware ADS-B (KPAE)
03:45PM 48.1195 -122.0660 66° East 418 481 23,300 1,800 Climbing FlightAware ADS-B
03:45PM 48.1223 -122.0540 71° East 419 482 23,500 2,400 Climbing FlightAware ADS-B
03:45PM 48.1252 -122.0350 79° East 421 484 23,700 1,620 Climbing FlightAware ADS-B
03:45PM 48.1258 -122.0266 87° East 425 489 23,800 960 Climbing FlightAware ADS-B (KPAE)
03:45PM 48.1261 -122.0180 88° East 425 489 23,800 720 Level FlightAware ADS-B
03:45PM 48.1259 -121.9990 92° East 429 494 23,900 720 Climbing FlightAware ADS-B
03:46PM 48.1222 -121.9245 94° East 444 511 24,200 780 Climbing FlightAware ADS-B (KPAE)
03:46PM 48.1214 -121.9070 94° East 445 512 24,300 1,500 Climbing FlightAware ADS-B
03:46PM 48.1181 -121.8378 94° East 452 520 25,000 1,380 Climbing FlightAware ADS-B (CYVR)
03:46PM 48.1170 -121.8150 94° East 454 522 25,000  Level FlightAware ADS-B
03:47PM 48.1124 -121.7160 94° East 467 537 25,000  Level FlightAware ADS-B
03:47PM 48.1084 -121.6267 94° East 467 537 25,000  Level FlightAware ADS-B (CYWH)
03:47PM 48.1080 -121.6190 94° East 467 537 25,000  Level FlightAware ADS-B
03:48PM 48.1037 -121.5222 94° East 466 536 25,000  Level FlightAware ADS-B (KPAE)
03:48PM 48.1036 -121.5210 94° East 466 536 25,000  Level FlightAware ADS-B
03:48PM 48.0992 -121.4230 94° East 473 544 25,000  Level FlightAware ADS-B
03:49PM 48.0978 -121.3925 94° East 474 545 25,000  Level FlightAware ADS-B (KPAE)
03:49PM 48.0947 -121.3230 94° East 475 547 25,000  Level FlightAware ADS-B
03:49PM 48.0924 -121.2696 94° East 476 548 25,000  Level FlightAware ADS-B (KPAE)
03:49PM 48.0904 -121.2220 93° East 476 548 25,000  Level FlightAware ADS-B
03:50PM 48.0874 -121.1472 93° East 474 545 25,000  Level FlightAware ADS-B (KPAE)
03:50PM 48.0859 -121.1090 93° East 475 547 25,000  Level FlightAware ADS-B
03:50PM 48.0828 -121.0387 95° East 473 544 25,000  Level FlightAware ADS-B (CYWH)
03:51PM 48.0799 -120.9990 96° East 472 543 25,000  Level FlightAware ADS-B
03:51PM 48.0752 -120.9374 96° East 484 557 25,000  Level FlightAware ADS-B (KPAE)
03:51PM 48.0723 -120.8990 96° East 488 562 25,000 120 Level FlightAware ADS-B
03:52PM 48.0655 -120.7996 96° East 503 579 25,100 120 Climbing FlightAware ADS-B (KPAE)
03:52PM 48.0644 -120.7840 96° East 504 580 25,100 -180 Level FlightAware ADS-B
03:52PM 48.0594 -120.7108 96° East 505 581 25,000 -120 Descending FlightAware ADS-B (KPAE)
03:53PM 48.0509 -120.5830 96° East 504 580 25,000  Level FlightAware ADS-B
03:53PM 48.0496 -120.5614 95° East 503 579 25,000  Level FlightAware ADS-B (KPAE)
03:53PM 48.0405 -120.4270 96° East 504 580 25,000 60 Level FlightAware ADS-B
03:54PM 48.0328 -120.3160 96° East 501 577 25,100  Climbing FlightAware ADS-B
03:55PM 48.0245 -120.1970 96° East 496 571 25,000 -120 Descending FlightAware ADS-B
03:55PM 48.0177 -120.0920 95° East 502 578 25,000  Level FlightAware ADS-B
03:56PM 48.0110 -119.9890 95° East 501 577 25,000  Level FlightAware ADS-B
03:56PM 48.0003 -119.8260 95° East 503 579 25,000  Level FlightAware ADS-B
03:56PM 47.9968 -119.7940 100° East 502 578 25,000  Level FlightAware ADS-B
03:57PM 47.9732 -119.6400 101° East 502 578 25,000  Level FlightAware ADS-B
03:58PM 47.9139 -119.5080 101° East 502 578 25,000  Level FlightAware ADS-B
03:58PM 47.8996 -119.4980 150° Southeast 500 575 25,000  Level FlightAware ADS-B
03:58PM 47.8736 -119.4870 167° South 505 581 25,000  Level FlightAware ADS-B
03:59PM 47.8103 -119.4720 171° South 508 585 25,000  Level FlightAware ADS-B
04:03PM 47.2208 -119.3080 171° South 524 603 25,000 540 Level FlightAware ADS-B
04:08PM 46.5674 -119.1785 199° South 460 529 29,900 840 Climbing FlightAware ADS-B (KPFC)
04:09PM 46.4610 -119.2363 200° South 465 535 30,000  Climbing FlightAware ADS-B (KPFC)
04:11PM 46.1863 -119.3745 203° Southwest 474 545 30,000  Level FlightAware ADS-B (KPFC)
04:13PM 45.9726 -119.4913 200° South 495 570 30,000  Level FlightAware ADS-B (KPFC)
04:14PM 45.8514 -119.5540 200° South 508 585 30,000  Level FlightAware ADS-B (KBOI)
04:14PM 45.7830 -119.5891 200° South 512 589 30,000  Level FlightAware ADS-B (KBOI)
04:14PM 45.7593 -119.6014 200° South 515 593 30,000  Level FlightAware ADS-B (KPFC)
04:15PM 45.7181 -119.6226 200° South 516 594 30,000  Level FlightAware ADS-B (KBOI)
04:15PM 45.6827 -119.6407 200° South 514 592 30,000  Level FlightAware ADS-B (KPFC)
04:15PM 45.6324 -119.6665 200° South 511 588 30,000 -120 Level FlightAware ADS-B (KBOI)
04:16PM 45.5504 -119.7087 200° South 509 586 29,900  Descending FlightAware ADS-B (KBOI)
04:16PM 45.5287 -119.7200 200° South 511 588 30,000 120 Climbing FlightAware ADS-B (KPFC)
04:17PM 45.4503 -119.7624 202° Southwest 510 587 30,000  Level FlightAware ADS-B (KBOI)
04:17PM 45.4349 -119.7709 202° Southwest 503 579 30,000  Level FlightAware ADS-B (KPFC)
04:17PM 45.3863 -119.7983 202° Southwest 508 585 30,000  Level FlightAware ADS-B (KBOI)
04:17PM 45.3636 -119.8113 202° Southwest 501 577 30,000  Level FlightAware ADS-B (KPFC)
04:18PM 45.3177 -119.8376 202° Southwest 503 579 30,000  Level FlightAware ADS-B (KBOI)
04:18PM 45.2757 -119.8584 198° South 510 587 30,000 120 Level FlightAware ADS-B (KPFC)
04:18PM 45.2408 -119.8735 197° South 515 593 30,100  Climbing FlightAware ADS-B (KBOI)
04:18PM 45.1850 -119.8978 197° South 520 598 30,000 -180 Descending FlightAware ADS-B (KPFC)
04:19PM 45.1657 -119.9065 198° South 523 602 30,000  Level FlightAware ADS-B (KBOI)
04:19PM 45.1025 -119.9358 199° South 511 588 30,000  Level FlightAware ADS-B (KPFC)
04:20PM 45.0250 -119.9743 199° South 508 585 30,000  Level FlightAware ADS-B (KPFC)
04:20PM 45.0219 -119.9759 200° South 511 588 30,000  Level FlightAware ADS-B (KBOI)
04:21PM 44.8921 -120.0425 199° South 508 585 30,000  Level FlightAware ADS-B (KPFC)
04:21PM 44.8824 -120.0477 201° Southwest 512 589 30,000  Level FlightAware ADS-B (KBOI)
04:21PM 44.8157 -120.0831 201° Southwest 513 590 30,000 120 Level FlightAware ADS-B (KBOI)
04:21PM 44.7987 -120.0920 199° South 508 585 30,100  Climbing FlightAware ADS-B (KPFC)
04:22PM 44.7349 -120.1232 199° South 527 606 30,000 -120 Descending FlightAware ADS-B (KBOI)
04:23PM 44.6383 -120.1674 199° South 526 605 30,000  Level FlightAware ADS-B (KBOI)
04:23PM 44.6250 -120.1735 199° South 508 585 30,000  Level FlightAware ADS-B (KPFC)
04:23PM 44.5613 -120.2036 200° South 522 601 30,000 120 Level FlightAware ADS-B (KBOI)
04:23PM 44.5349 -120.2168 200° South 515 593 30,100 300 Climbing FlightAware ADS-B (KPFC)
04:24PM 44.4803 -120.2438 200° South 523 602 30,200 60 Climbing FlightAware ADS-B (KBOI)
04:24PM 44.4133 -120.2770 200° South 519 597 30,200 -240 Level FlightAware ADS-B (KBOI)
04:25PM 44.3421 -120.3123 200° South 519 597 30,000 -240 Descending FlightAware ADS-B (KBDN)
04:25PM 44.2973 -120.3346 200° South 520 598 30,000  Level FlightAware ADS-B (KBOI)
04:25PM 44.2624 -120.3521 200° South 521 600 30,000 780 Level FlightAware ADS-B (KBDN)
04:26PM 44.2295 -120.3686 200° South 514 592 30,400 1,500 Climbing FlightAware ADS-B (KBOI)
04:26PM 44.2000 -120.3833 200° South 512 589 30,800 1,200 Climbing FlightAware ADS-B (KBDN)
04:26PM 44.1635 -120.4015 200° South 511 588 31,000 360 Climbing FlightAware ADS-B (KBOI)
04:26PM 44.1411 -120.4125 199° South 517 595 31,000 -540 Level FlightAware ADS-B (KBDN)
04:27PM 44.0868 -120.4390 200° South 524 603 30,700 -1,620 Descending FlightAware ADS-B (KBOI)
04:27PM 44.0519 -120.4562 200° South 527 606 30,200 -1,800 Descending FlightAware ADS-B (KBDN)
04:27PM 44.0160 -120.4739 200° South 529 609 29,800 120 Descending FlightAware ADS-B (KBOI)
04:28PM 43.9580 -120.5024 200° South 510 587 30,300 1,500 Climbing FlightAware ADS-B (KPFC)
04:28PM 43.8817 -120.5384 199° South 505 581 31,300 1,620 Climbing FlightAware ADS-B (KBOI)
04:28PM 43.8555 -120.5504 198° South 506 582 31,600 960 Climbing FlightAware ADS-B (KBDN)
04:29PM 43.8310 -120.5615 199° South 504 580 31,800 420 Climbing FlightAware ADS-B (KBOI)
04:29PM 43.7655 -120.5914 198° South 511 588 31,900 -240 Climbing FlightAware ADS-B (KPFC)
04:30PM 43.6840 -120.6290 199° South 521 600 31,600 -840 Descending FlightAware ADS-B (KBOI)
04:30PM 43.5774 -120.6777 198° South 527 606 30,800 -960 Descending FlightAware ADS-B (KPFC)
04:31PM 43.4902 -120.7165 198° South 527 606 30,300 -900 Descending FlightAware ADS-B (KBDN)
04:31PM 43.4562 -120.7315 198° South 528 608 30,000 180 Descending FlightAware ADS-B (KBDN)
04:32PM 43.3634 -120.7758 200° South 511 588 30,500 1,920 Climbing FlightAware ADS-B (KPFC)
04:34PM 43.1218 -120.8935 200° South 448 516 35,000 1,680 Climbing FlightAware ADS-B (KPFC)
04:34PM 43.0458 -120.9291 199° South 445 512 34,900  Descending FlightAware ADS-B (KPFC)
04:35PM 42.9634 -120.9650 198° South 442 509 35,000 60 Climbing FlightAware ADS-B (KPFC)
04:36PM 42.8868 -120.9968 197° South 441 507 35,000  Level FlightAware ADS-B (KPFC)
04:36PM 42.8189 -121.0254 198° South 443 510 35,000  Level FlightAware ADS-B (KPFC)
04:38PM 42.6363 -121.1071 199° South 463 533 35,100  Climbing FlightAware ADS-B (KPFC)
04:39PM 42.5485 -121.1487 199° South 476 548 35,000 -120 Descending FlightAware ADS-B (KPFC)
04:39PM 42.4470 -121.1974 200° South 466 536 35,000  Level FlightAware ADS-B (KPFC)
04:40PM 42.3685 -121.2349 200° South 465 535 35,000 60 Level FlightAware ADS-B (KPFC)
04:41PM 42.2506 -121.2905 200° South 480 552 35,100  Climbing FlightAware ADS-B (KPFC)
04:42PM 42.1319 -121.3492 201° Southwest 478 550 35,100 -60 Level FlightAware ADS-B (KPFC)
04:44PM 41.9052 -121.4611 201° Southwest 478 550 35,000 180 Descending FlightAware ADS-B (KPFC)
04:49PM 41.2814 -121.7318 196° South 481 554 36,400 60 Climbing FlightAware ADS-B (KAUN)
04:49PM 41.2020 -121.7615 196° South 504 580 35,400 -840 Descending FlightAware ADS-B (KAUN)
04:50PM 41.0739 -121.8111 197° South 503 579 35,100 -540 Descending FlightAware ADS-B (KAUN)
04:51PM 40.9782 -121.8495 197° South 508 585 34,700 540 Descending FlightAware ADS-B (KAUN)
04:51PM 40.8891 -121.8856 197° South 483 556 35,900 1,320 Climbing FlightAware ADS-B (KAUN)
04:52PM 40.8522 -121.8978 184° South 489 563 36,100  Climbing FlightAware ADS-B (KAUN)
04:53PM 40.7627 -121.8474 133° Southeast 521 600 35,900 -300 Descending FlightAware ADS-B (KAUN)
04:53PM 40.7509 -121.8224 103° East 537 618 35,800  Descending FlightAware ADS-B (KAUN)
04:53PM 40.7393 -121.7502 82° East 543 625 35,900 300 Climbing FlightAware ADS-B (KAUN)
04:53PM 40.7462 -121.6951 65° Northeast 545 627 36,000 180 Climbing FlightAware ADS-B (KAUN)
04:54PM 40.7981 -121.5665 53° Northeast 545 627 36,100 60 Climbing FlightAware ADS-B (KAUN)
04:54PM 40.8394 -121.5080 37° Northeast 543 625 36,100  Level FlightAware ADS-B (KAUN)
04:55PM 40.9181 -121.4637 17° North 535 616 36,100 -840 Level FlightAware ADS-B (KAUN)
04:56PM 41.0326 -121.4198 16° North 554 638 35,000 -480 Descending FlightAware ADS-B (KAUN)
04:56PM 41.1215 -121.3850 17° North 537 618 35,500 960 Climbing FlightAware ADS-B (KAUN)
04:57PM 41.2231 -121.3411 17° North 542 624 36,500 780 Climbing Oakland Center
04:58PM 41.3592 -121.2797 19° North 521 600 36,900  Climbing Seattle Center
05:05PM 42.2480 -121.0319 19° North 516 594 36,600 -60 Descending FlightAware ADS-B (KPFC)
05:05PM 42.2944 -121.0355 356° North 512 589 36,700 240 Climbing FlightAware ADS-B (KPFC)
05:06PM 42.4184 -121.0403 358° North 502 578 36,900  Climbing FlightAware ADS-B (KPFC)
05:07PM 42.5406 -121.0451 358° North 502 578 36,800 -420 Descending FlightAware ADS-B (KPFC)
05:07PM 42.6356 -121.0499 358° North 514 592 36,300 -1,380 Descending FlightAware ADS-B (KPFC)
05:08PM 42.7645 -121.0584 357° North 533 613 34,700 -1,500 Descending FlightAware ADS-B (KPFC)
05:09PM 42.8576 -121.0660 356° North 529 609 34,100 -540 Descending FlightAware ADS-B (KPFC)
05:10PM 42.9711 -121.0780 356° North 517 595 34,000 360 Descending FlightAware ADS-B (KPFC)
05:10PM 43.0940 -121.0832 North 516 594 34,700 600 Climbing FlightAware ADS-B (KPFC)
05:11PM 43.1929 -121.0791 North 515 593 35,000 840 Climbing FlightAware ADS-B (KPFC)
05:12PM 43.2614 -121.0618 16° North 516 594 35,700 2,400 Climbing FlightAware ADS-B (KPFC)
05:12PM 43.3174 -121.0294 28° Northeast 496 571 37,200 2,640 Climbing FlightAware ADS-B (KPFC)
05:13PM 43.3951 -120.9650 31° Northeast 491 565 38,700 1,380 Climbing FlightAware ADS-B (KPFC)
05:13PM 43.4616 -120.9094 32° Northeast 473 544 39,000 480 Climbing FlightAware ADS-B (KPFC)
05:14PM 43.5224 -120.8582 32° Northeast 470 541 39,300 300 Climbing FlightAware ADS-B (KPFC)
05:14PM 43.5888 -120.8020 31° Northeast 472 543 39,400 120 Climbing FlightAware ADS-B (KBOI)
05:14PM 43.5955 -120.7964 32° Northeast 473 544 39,400 -360 Level FlightAware ADS-B (KPFC)
05:15PM 43.6551 -120.7459 32° Northeast 475 547 39,200 -480 Descending FlightAware ADS-B (KPFC)
05:15PM 43.6741 -120.7298 31° Northeast 484 557 39,100 -300 Descending FlightAware ADS-B (KBOI)
05:16PM 43.7481 -120.6667 32° Northeast 493 567 39,000 -180 Descending FlightAware ADS-B (KPFC)
05:16PM 43.7509 -120.6644 31° Northeast 492 566 39,000 300 Level FlightAware ADS-B (KBOI)
05:16PM 43.8203 -120.6052 31° Northeast 494 568 39,200 300 Climbing FlightAware ADS-B (KBOI)
05:16PM 43.8230 -120.6028 32° Northeast 494 568 39,200  Level FlightAware ADS-B (KPFC)
05:17PM 43.8293 -120.5975 31° Northeast 494 568 39,200 300 Level FlightAware ADS-B (KBOI)
05:17PM 43.8860 -120.5490 32° Northeast 495 570 39,400 300 Climbing FlightAware ADS-B (KBDN)
05:18PM 43.9837 -120.4652 32° Northeast 497 572 39,600 240 Climbing FlightAware ADS-B (KPFC)
05:19PM 44.0626 -120.3973 31° Northeast 498 573 39,800 240 Climbing FlightAware ADS-B (KBOI)
05:19PM 44.1017 -120.3635 32° Northeast 499 574 39,900 300 Climbing FlightAware ADS-B (KBDN)
05:19PM 44.1412 -120.3294 31° Northeast 498 573 40,000 360 Climbing FlightAware ADS-B (KBOI)
05:19PM 44.1506 -120.3213 32° Northeast 492 566 40,100  Climbing FlightAware ADS-B (KBDN)
05:20PM 44.2136 -120.2668 32° Northeast 481 554 40,000 60 Descending FlightAware ADS-B (KBOI)
05:20PM 44.2714 -120.2166 32° Northeast 474 545 40,200 180 Climbing FlightAware ADS-B (KPFC)
05:21PM 44.3288 -120.1677 31° Northeast 475 547 40,200 -180 Level FlightAware ADS-B (KBDN)
05:21PM 44.3563 -120.1447 30° Northeast 475 547 40,100 -180 Descending FlightAware ADS-B (KBOI)
05:22PM 44.4100 -120.1007 31° Northeast 471 542 40,100 -120 Level FlightAware ADS-B (KPFC)
05:22PM 44.4811 -120.0443 29° Northeast 474 545 40,000  Descending FlightAware ADS-B (KPFC)
05:22PM 44.4842 -120.0420 28° Northeast 473 544 40,100 -480 Climbing FlightAware ADS-B (KBOI)
05:23PM 44.5877 -119.9633 28° Northeast 483 556 39,600 -480 Descending FlightAware ADS-B (KBOI)
05:24PM 44.6868 -119.8847 30° Northeast 497 572 39,400 -120 Descending FlightAware ADS-B (KBOI)
05:24PM 44.7498 -119.8338 29° Northeast 502 578 39,500 180 Climbing FlightAware ADS-B (KBOI)
05:25PM 44.8135 -119.7825 30° Northeast 500 575 39,600 420 Climbing FlightAware ADS-B (KBOI)
05:25PM 44.8338 -119.7654 32° Northeast 494 568 39,800 660 Climbing FlightAware ADS-B (KPFC)
05:25PM 44.8678 -119.7340 33° Northeast 501 577 39,900 -120 Climbing FlightAware ADS-B (KBOI)
05:26PM 44.9232 -119.6816 33° Northeast 505 581 39,700 -360 Descending FlightAware ADS-B (KBOI)
05:26PM 44.9349 -119.6708 34° Northeast 508 585 39,700 300 Level FlightAware ADS-B (KPFC)
05:27PM 45.0004 -119.6092 34° Northeast 507 583 39,900 120 Climbing FlightAware ADS-B (KPFC)
05:27PM 45.0223 -119.5887 33° Northeast 506 582 39,800 -180 Descending FlightAware ADS-B (KBOI)
05:27PM 45.0811 -119.5340 33° Northeast 502 578 39,800  Level FlightAware ADS-B (KBOI)
05:28PM 45.1135 -119.4984 43° Northeast 509 586 39,800 180 Level FlightAware ADS-B (KPFC)
05:28PM 45.1316 -119.4715 50° Northeast 513 590 39,900 300 Climbing FlightAware ADS-B (KBOI)
05:28PM 45.1435 -119.4487 56° Northeast 516 594 39,900  Level FlightAware ADS-B (KPFC)
05:28PM 45.1592 -119.4093 64° Northeast 519 597 39,900 180 Level FlightAware ADS-B (KBOI)
05:28PM 45.1727 -119.3453 80° East 523 602 40,000 120 Climbing FlightAware ADS-B (KBOI)
05:29PM 45.1736 -119.2774 96° East 529 609 40,000  Level FlightAware ADS-B (KBOI)
05:29PM 45.1633 -119.2163 110° East 530 610 40,000  Level FlightAware ADS-B (KBOI)
05:29PM 45.1445 -119.1672 126° Southeast 529 609 40,000  Level FlightAware ADS-B (KPFC)
05:30PM 45.1241 -119.1358 141° Southeast 525 604 40,000 -240 Level FlightAware ADS-B (KPFC)
05:30PM 45.0996 -119.1115 150° Southeast 521 600 39,900 -300 Descending FlightAware ADS-B (KBOI)
05:30PM 45.0782 -119.0980 160° South 516 594 39,900  Level FlightAware ADS-B (KBOI)
05:30PM 45.0686 -119.0938 166° South 514 592 39,900 -240 Level FlightAware ADS-B (KPFC)
05:30PM 45.0098 -119.0879 187° South 502 578 39,800  Descending FlightAware ADS-B (KBOI)
05:31PM 44.9496 -119.1155 206° Southwest 484 557 39,900 120 Climbing FlightAware ADS-B (KPFC)
05:32PM 44.8439 -119.1871 207° Southwest 491 565 40,000 -120 Climbing FlightAware ADS-B (KBOI)
05:33PM 44.7454 -119.2572 207° Southwest 491 565 39,700 60 Descending FlightAware ADS-B (KBOI)
05:33PM 44.6613 -119.3179 208° Southwest 483 556 40,100 240 Climbing FlightAware ADS-B (KBOI)
05:34PM 44.5997 -119.3614 207° Southwest 491 565 40,100 -240 Level FlightAware ADS-B (KBOI)
05:35PM 44.5080 -119.4261 207° Southwest 493 567 39,800 -240 Descending FlightAware ADS-B (KBOI)
05:35PM 44.4523 -119.4650 207° Southwest 491 565 39,900  Climbing FlightAware ADS-B (KBOI)
05:35PM 44.4157 -119.4901 206° Southwest 483 556 39,800 -120 Descending FlightAware ADS-B (KPFC)
05:36PM 44.3408 -119.5398 206° Southwest 488 562 39,800 240 Level FlightAware ADS-B (KBOI)
05:36PM 44.3170 -119.5558 206° Southwest 482 555 40,000 960 Climbing FlightAware ADS-B (KPFC)
05:36PM 44.2758 -119.5854 209° Southwest 473 544 40,300 780 Climbing FlightAware ADS-B (KBOI)
05:37PM 44.2482 -119.6062 208° Southwest 472 543 40,500 120 Climbing FlightAware ADS-B (KPFC)
05:38PM 44.0705 -119.7348 208° Southwest 469 540 40,600 -420 Climbing FlightAware ADS-B (KPFC)
05:39PM 43.9514 -119.8193 209° Southwest 472 543 39,500 -720 Descending FlightAware ADS-B (KBOI)
05:40PM 43.9092 -119.8495 208° Southwest 469 540 39,700 240 Climbing FlightAware ADS-B (KPFC)
05:40PM 43.9358 -119.8304 209° Southwest 472 543 39,600 360 Descending FlightAware ADS-B (KBOI)
05:40PM 43.8426 -119.8958 207° Southwest 470 541 39,900 420 Climbing FlightAware ADS-B (KPFC)
05:41PM 43.7472 -119.9603 206° Southwest 467 537 40,200 180 Climbing FlightAware ADS-B (KPFC)
05:42PM 43.6319 -120.0079 182° South 497 572 40,300  Climbing FlightAware ADS-B (KBOI)
05:42PM 43.6078 -120.0067 176° South 497 572 40,200 -1,740 Descending FlightAware ADS-B (KPFC)
05:43PM 43.5319 -119.9998 176° South 524 603 39,200 -1,500 Descending FlightAware ADS-B (KBOI)
05:43PM 43.4923 -119.9963 176° South 513 590 39,000 300 Descending FlightAware ADS-B (KPFC)
05:43PM 43.4509 -119.9925 175° South 512 589 39,400 960 Climbing FlightAware ADS-B (KBOI)
05:43PM 43.4193 -119.9890 175° South 503 579 39,500 600 Climbing FlightAware ADS-B (KPFC)
05:44PM 43.3777 -119.9844 175° South 505 581 39,700 600 Climbing FlightAware ADS-B (KBOI)
05:44PM 43.3091 -119.9768 175° South 500 575 40,000 600 Climbing FlightAware ADS-B (KBOI)
05:45PM 43.2434 -119.9734 175° South 503 579 40,300 540 Climbing FlightAware ADS-B (KPFC)
05:45PM 43.2420 -119.9734 175° South 494 568 40,300 -240 Level FlightAware ADS-B (KBOI)
05:45PM 43.1725 -119.9570 169° South 505 581 40,200 -1,080 Descending FlightAware ADS-B (KBOI)
05:45PM 43.1203 -119.9435 170° South 494 568 39,400 -2,340 Descending FlightAware ADS-B (KPFC)
05:46PM 43.1141 -119.9419 169° South 523 602 39,200 -1,200 Descending FlightAware ADS-B (KBOI)
05:46PM 43.0096 -119.9146 170° South 494 568 38,500 -960 Descending FlightAware ADS-B (KPFC)
05:46PM 43.0039 -119.9130 168° South 526 605 38,500 -540 Level FlightAware ADS-B (KBOI)
05:47PM 42.9249 -119.8914 168° South 525 604 38,200 -420 Descending FlightAware ADS-B (KBOI)
05:48PM 42.8163 -119.8623 169° South 518 596 38,000 -180 Descending FlightAware ADS-B (KBOI)
05:48PM 42.7369 -119.8419 169° South 511 588 38,000  Level FlightAware ADS-B (KBOI)
05:49PM 42.6718 -119.8249 165° South 501 577 38,000  Level FlightAware ADS-B (KBOI)
05:49PM 42.5916 -119.7531 122° Southeast 530 610 38,000  Level FlightAware ADS-B (KBOI)
05:50PM 42.5726 -119.6876 102° East 537 618 38,000  Level FlightAware ADS-B (KBOI)
05:50PM 42.5741 -119.5581 71° East 541 623 38,000  Level FlightAware ADS-B (KBOI)
05:51PM 42.5995 -119.4906 53° Northeast 534 615 38,000  Level FlightAware ADS-B (KBOI)
05:51PM 42.6327 -119.4460 37° Northeast 523 602 38,000  Level FlightAware ADS-B (KBOI)
05:51PM 42.6759 -119.4151 20° North 509 586 38,000  Level FlightAware ADS-B (KBOI)
05:52PM 42.7158 -119.4037 North 495 570 38,000  Level FlightAware ADS-B (KBOI)
05:52PM 42.7520 -119.4049 353° North 485 558 38,000  Level FlightAware ADS-B (KBOI)
05:52PM 42.7822 -119.4146 342° North 476 548 38,000  Level FlightAware ADS-B (KBOI)
05:53PM 42.8246 -119.4442 325° Northwest 464 534 38,000  Level FlightAware ADS-B (KBOI)
05:53PM 42.8932 -119.5143 324° Northwest 465 535 38,000  Level FlightAware ADS-B (KBOI)
05:54PM 42.9312 -119.5527 324° Northwest 465 535 38,000  Level FlightAware ADS-B (KBOI)
05:54PM 42.9976 -119.6201 324° Northwest 463 533 38,000  Level FlightAware ADS-B (KBOI)
05:55PM 43.0481 -119.6717 324° Northwest 467 537 38,000  Level FlightAware ADS-B (KBOI)
05:55PM 43.0807 -119.7049 323° Northwest 463 533 38,000  Level FlightAware ADS-B (KPFC)
05:55PM 43.1012 -119.7259 324° Northwest 468 539 38,000  Level FlightAware ADS-B (KBOI)
05:56PM 43.1674 -119.7937 323° Northwest 462 532 38,000  Level FlightAware ADS-B (KPFC)
05:56PM 43.1777 -119.8043 324° Northwest 465 535 38,000  Level FlightAware ADS-B (KBOI)
05:56PM 43.2280 -119.8560 324° Northwest 467 537 38,000  Level FlightAware ADS-B (KBOI)
05:57PM 43.2712 -119.9004 323° Northwest 468 539 38,000  Level FlightAware ADS-B (KPFC)
05:57PM 43.2812 -119.9108 324° Northwest 469 540 38,000  Level FlightAware ADS-B (KBOI)
05:57PM 43.3332 -119.9644 324° Northwest 470 541 38,000  Level FlightAware ADS-B (KBOI)
05:57PM 43.3364 -119.9676 323° Northwest 464 534 38,000  Level FlightAware ADS-B (KPFC)
05:58PM 43.3849 -120.0176 324° Northwest 469 540 38,000  Level FlightAware ADS-B (KBOI)
05:58PM 43.3890 -120.0219 323° Northwest 467 537 38,000  Level FlightAware ADS-B (KPFC)
05:58PM 43.4328 -120.0670 323° Northwest 464 534 38,000  Level FlightAware ADS-B (KBOI)
05:59PM 43.4653 -120.1007 323° Northwest 463 533 38,000  Level FlightAware ADS-B (KPFC)
05:59PM 43.4884 -120.1248 323° Northwest 461 531 38,000  Level FlightAware ADS-B (KBOI)
05:59PM 43.5150 -120.1524 324° Northwest 460 529 38,000  Level FlightAware ADS-B (KBOI)
05:59PM 43.5449 -120.1835 323° Northwest 461 531 38,000  Level FlightAware ADS-B (KPFC)
06:00PM 43.6312 -120.2734 323° Northwest 459 528 38,000  Level FlightAware ADS-B (KBOI)
06:00PM 43.6406 -120.2834 322° Northwest 453 521 38,000  Level FlightAware ADS-B (KPFC)
06:01PM 43.6885 -120.3336 323° Northwest 458 527 38,000  Level FlightAware ADS-B (KBOI)
06:01PM 43.7081 -120.3541 322° Northwest 452 520 38,000  Level FlightAware ADS-B (KPFC)
06:01PM 43.7287 -120.3756 323° Northwest 458 527 38,000  Level FlightAware ADS-B (KBOI)
06:02PM 43.7625 -120.4109 322° Northwest 452 520 38,000  Level FlightAware ADS-B (KPFC)
06:02PM 43.7908 -120.4407 323° Northwest 458 527 38,000  Level FlightAware ADS-B (KBOI)
06:02PM 43.8332 -120.4853 323° Northwest 457 526 38,000  Level FlightAware ADS-B (KBOI)
06:03PM 43.8496 -120.5026 323° Northwest 457 526 38,000  Level FlightAware ADS-B (KBDN)
06:03PM 43.8932 -120.5487 323° Northwest 455 524 38,000  Level FlightAware ADS-B (KBOI)
06:03PM 43.9203 -120.5773 323° Northwest 455 524 38,000  Level FlightAware ADS-B (KBDN)
06:03PM 43.9443 -120.6027 323° Northwest 454 522 38,000  Level FlightAware ADS-B (KBOI)
06:04PM 43.9840 -120.6449 322° Northwest 449 517 38,000  Level FlightAware ADS-B (KPFC)
06:04PM 44.0433 -120.7078 323° Northwest 454 522 38,000  Level FlightAware ADS-B (KBDN)
06:05PM 44.0953 -120.7632 323° Northwest 455 524 38,000  Level FlightAware ADS-B (KBDN)
06:05PM 44.1473 -120.8186 322° Northwest 454 522 38,000  Level FlightAware ADS-B (KBDN)
06:06PM 44.2164 -120.8926 322° Northwest 448 516 38,000  Level FlightAware ADS-B (KPFC)
06:07PM 44.2673 -120.9471 322° Northwest 453 521 38,000  Level FlightAware ADS-B (KBDN)
06:07PM 44.3302 -121.0148 322° Northwest 453 521 38,000  Level FlightAware ADS-B (KPFC)
06:08PM 44.3726 -121.0605 322° Northwest 453 521 38,000  Level FlightAware ADS-B (KBDN)
06:09PM 44.4493 -121.1434 322° Northwest 451 519 38,000  Level FlightAware ADS-B (KPFC)
06:10PM 44.5737 -121.2785 322° Northwest 449 517 38,000  Level FlightAware ADS-B (KPFC)
06:10PM 44.6400 -121.3507 322° Northwest 451 519 38,000  Level FlightAware ADS-B (KPFC)
06:11PM 44.6916 -121.4071 322° Northwest 452 520 38,000  Level FlightAware ADS-B (KPFC)
06:12PM 44.7580 -121.4800 322° Northwest 452 520 38,000  Level FlightAware ADS-B (KPFC)
06:12PM 44.8230 -121.5514 322° Northwest 450 518 38,000  Level FlightAware ADS-B (KPFC)
06:13PM 44.8883 -121.6236 322° Northwest 454 522 38,000  Level FlightAware ADS-B (KPFC)
06:13PM 44.9349 -121.6750 322° Northwest 456 525 38,000  Level FlightAware ADS-B
06:14PM 44.9785 -121.7233 321° Northwest 453 521 38,000  Level FlightAware ADS-B (KPFC)
06:14PM 44.9845 -121.7300 322° Northwest 459 528 38,000  Level FlightAware ADS-B
06:14PM 45.0353 -121.7860 322° Northwest 461 531 38,000  Level FlightAware ADS-B
06:15PM 45.0454 -121.7974 321° Northwest 455 524 38,000  Level FlightAware ADS-B (KPFC)
06:15PM 45.0862 -121.8430 322° Northwest 461 531 38,000  Level FlightAware ADS-B
06:15PM 45.1122 -121.8719 321° Northwest 455 524 38,000  Level FlightAware ADS-B (KPFC)
06:15PM 45.1363 -121.8990 322° Northwest 461 531 38,000  Level FlightAware ADS-B
06:16PM 45.1787 -121.9462 321° Northwest 454 522 38,000  Level FlightAware ADS-B (KPFC)
06:16PM 45.1947 -121.9640 322° Northwest 461 531 38,000  Level FlightAware ADS-B
06:16PM 45.2311 -122.0049 321° Northwest 454 522 38,000  Level FlightAware ADS-B (KPFC)
06:17PM 45.2461 -122.0220 322° Northwest 461 531 38,000  Level FlightAware ADS-B
06:17PM 45.2960 -122.0780 321° Northwest 458 527 38,000  Level FlightAware ADS-B
06:17PM 45.2977 -122.0796 322° Northwest 458 527 38,000  Level FlightAware ADS-B (KPFC)
06:18PM 45.3459 -122.1340 321° Northwest 451 519 38,000  Level FlightAware ADS-B
06:18PM 45.3531 -122.1421 322° Northwest 450 518 38,000  Level FlightAware ADS-B (KPFC)
06:18PM 45.3945 -122.1890 321° Northwest 448 516 38,000  Level FlightAware ADS-B
06:18PM 45.4174 -122.2149 321° Northwest 440 506 38,000  Level FlightAware ADS-B (KPFC)
06:19PM 45.4429 -122.2440 321° Northwest 446 513 38,000  Level FlightAware ADS-B
06:19PM 45.4687 -122.2729 322° Northwest 446 513 38,000  Level FlightAware ADS-B (CYVR)
06:19PM 45.4915 -122.2990 321° Northwest 446 513 38,000  Level FlightAware ADS-B
06:20PM 45.5344 -122.3474 321° Northwest 438 504 38,000  Level FlightAware ADS-B (KPFC)
06:20PM 45.5401 -122.3540 321° Northwest 444 511 38,000  Level FlightAware ADS-B
06:20PM 45.5890 -122.4100 321° Northwest 443 510 38,000  Level FlightAware ADS-B
06:20PM 45.5989 -122.4210 321° Northwest 444 511 38,000  Level FlightAware ADS-B (KPAE)
06:21PM 45.6370 -122.4650 321° Northwest 445 512 38,000  Level FlightAware ADS-B
06:21PM 45.6476 -122.4766 321° Northwest 445 512 38,000  Level FlightAware ADS-B (KPAE)
06:21PM 45.6854 -122.5200 321° Northwest 445 512 38,000  Level FlightAware ADS-B
06:21PM 45.7072 -122.5450 322° Northwest 444 511 38,000  Level FlightAware ADS-B
06:21PM 45.7088 -122.5465 325° Northwest 445 512 38,000  Level FlightAware ADS-B (KPAE)
06:21PM 45.7234 -122.5610 328° Northwest 446 513 38,000  Level FlightAware ADS-B
06:22PM 45.7359 -122.5710 331° Northwest 448 516 38,000  Level FlightAware ADS-B
06:22PM 45.7615 -122.5880 338° Northwest 451 519 38,000  Level FlightAware ADS-B
06:22PM 45.7662 -122.5906 339° North 445 512 38,000 -600 Level FlightAware ADS-B (KPFC)
06:22PM 45.7820 -122.5980 343° North 453 521 37,900 -960 Descending FlightAware ADS-B
06:22PM 45.8047 -122.6060 349° North 451 519 37,700 -1,200 Descending FlightAware ADS-B
06:22PM 45.8104 -122.6076 350° North 449 517 37,600 -2,820 Descending FlightAware ADS-B (KPAE)
06:23PM 45.8653 -122.6210 350° North 438 504 36,300 -3,000 Descending FlightAware ADS-B
06:23PM 45.8849 -122.6257 350° North 438 504 35,800 -3,300 Descending FlightAware ADS-B (KPFC)
06:23PM 45.9261 -122.6360 350° North 444 511 34,600 -3,600 Descending FlightAware ADS-B
06:24PM 45.9582 -122.6439 351° North 450 518 33,100 -3,600 Descending FlightAware ADS-B (KPAE)
06:24PM 45.9874 -122.6510 350° North 452 520 32,800 -3,300 Descending FlightAware ADS-B
06:24PM 46.0440 -122.6652 350° North 454 522 31,300 -3,420 Descending FlightAware ADS-B (KPFC)
06:24PM 46.0503 -122.6670 350° North 463 533 31,100 -3,180 Descending FlightAware ADS-B
06:25PM 46.1158 -122.6840 350° North 473 544 29,500 -2,880 Descending FlightAware ADS-B
06:25PM 46.1649 -122.6956 350° North 472 543 28,600 -2,400 Descending FlightAware ADS-B (KPFC)
06:25PM 46.1804 -122.6990 350° North 471 542 28,300 -2,220 Descending FlightAware ADS-B
06:26PM 46.2444 -122.7160 350° North 466 536 27,200 -2,280 Descending FlightAware ADS-B
06:26PM 46.2499 -122.7169 350° North 458 527 27,100 -2,220 Descending FlightAware ADS-B (KPFC)
06:26PM 46.3076 -122.7310 350° North 460 529 26,100 -2,100 Descending FlightAware ADS-B
06:26PM 46.3342 -122.7381 350° North 457 526 25,700 -2,040 Descending FlightAware ADS-B (KPFC)
06:27PM 46.3702 -122.7470 350° North 453 521 25,100 -2,280 Descending FlightAware ADS-B
06:27PM 46.4051 -122.7563 350° North 450 518 24,400 -2,220 Descending FlightAware ADS-B (KPAE)
06:27PM 46.4325 -122.7630 350° North 449 517 24,000 -2,040 Descending FlightAware ADS-B
06:28PM 46.4790 -122.7754 350° North 438 504 23,200 -2,220 Descending FlightAware ADS-B (KPFC)
06:28PM 46.4940 -122.7790 350° North 445 512 22,900 -2,160 Descending FlightAware ADS-B
06:28PM 46.5346 -122.7890 351° North 440 506 22,200 -2,340 Descending FlightAware ADS-B
06:28PM 46.5565 -122.7930 356° North 440 506 21,700 -3,000 Descending FlightAware ADS-B
06:28PM 46.5593 -122.7929 357° North 433 498 21,600 -2,700 Descending FlightAware ADS-B (KPFC)
06:28PM 46.5752 -122.7930 North 440 506 21,300 -2,700 Descending FlightAware ADS-B
06:29PM 46.6011 -122.7910 North 437 503 20,700 -2,520 Descending FlightAware ADS-B
06:29PM 46.6214 -122.7870 10° North 435 501 20,300 -2,400 Descending FlightAware ADS-B
06:29PM 46.6799 -122.7670 13° North 427 491 19,100 -2,520 Descending FlightAware ADS-B
06:29PM 46.6819 -122.7663 13° North 426 490 19,000 -2,640 Descending FlightAware ADS-B (KPFC)
06:30PM 46.7372 -122.7470 13° North 421 484 17,800 -2,700 Descending FlightAware ADS-B
06:30PM 46.7455 -122.7445 13° North 420 483 17,500 -2,400 Descending FlightAware ADS-B (KPAE)
06:30PM 46.7946 -122.7280 13° North 423 487 16,600 -2,100 Descending FlightAware ADS-B
06:31PM 46.8207 -122.7187 13° North 417 480 16,000 -2,040 Descending FlightAware ADS-B (KPAE)
06:31PM 46.8518 -122.7080 13° North 414 476 15,600 -1,980 Descending FlightAware ADS-B
06:31PM 46.9108 -122.6880 13° North 400 460 14,600 -1,860 Descending FlightAware ADS-B (KPFC)
06:31PM 46.9167 -122.6860 13° North 412 474 14,500 -2,040 Descending FlightAware ADS-B
06:32PM 46.9639 -122.6702 13° North 400 460 13,600 -2,220 Descending FlightAware ADS-B (KPAE)
06:32PM 46.9714 -122.6680 13° North 399 459 13,400 -1,200 Descending FlightAware ADS-B
06:32PM 47.0170 -122.6517 13° North 379 436 13,000 -840 Descending FlightAware ADS-B (KPFC)
06:32PM 47.0245 -122.6490 13° North 375 432 13,000 -600 Level FlightAware ADS-B
06:33PM 47.0712 -122.6331 13° North 352 405 12,700 -600 Descending FlightAware ADS-B (KPAE)
06:33PM 47.0744 -122.6320 13° North 351 404 12,700 -600 Level FlightAware ADS-B
06:33PM 47.1059 -122.6211 14° North 328 377 12,500 -600 Descending FlightAware ADS-B (KPFC)
06:33PM 47.1220 -122.6160 13° North 328 377 12,400 -480 Descending FlightAware ADS-B
06:34PM 47.1650 -122.6010 13° North 307 353 12,200 -480 Descending FlightAware ADS-B
06:34PM 47.1988 -122.5890 14° North 297 342 12,000 -600 Descending FlightAware ADS-B
06:34PM 47.2095 -122.5840 20° North 295 339 11,900 -900 Descending FlightAware ADS-B
06:35PM 47.2171 -122.5800 24° Northeast 293 337 11,800 -1,020 Descending FlightAware ADS-B
06:35PM 47.2113 -122.5832 28° Northeast 292 336 11,700 -1,380 Descending FlightAware ADS-B (CYVR)
06:35PM 47.2268 -122.5720 30° Northeast 291 335 11,600 -1,200 Descending FlightAware ADS-B
06:35PM 47.2358 -122.5630 35° Northeast 290 334 11,500 -1,020 Descending FlightAware ADS-B
06:35PM 47.2467 -122.5500 42° Northeast 289 333 11,300 -1,380 Descending FlightAware ADS-B
06:35PM 47.2613 -122.5311 41° Northeast 287 330 10,900 -1,320 Descending FlightAware ADS-B (KPAE)
06:36PM 47.2794 -122.5080 41° Northeast 284 327 10,600 -1,080 Descending FlightAware ADS-B
06:36PM 47.2980 -122.4838 41° Northeast 276 318 10,200 -960 Descending FlightAware ADS-B (KPAE)
06:36PM 47.3042 -122.4760 41° Northeast 276 318 10,200 -1,200 Level FlightAware ADS-B
06:36PM 47.3119 -122.4670 34° Northeast 273 314 10,000 -1,140 Descending FlightAware ADS-B
06:36PM 47.3154 -122.4640 28° Northeast 271 312 10,000 -900 Level FlightAware ADS-B
06:36PM 47.3192 -122.4620 22° Northeast 269 310 9,900 -900 Descending FlightAware ADS-B
06:36PM 47.3235 -122.4600 16° North 266 306 9,900  Level FlightAware ADS-B
06:36PM 47.3276 -122.4590 10° North 266 306 9,900  Level FlightAware ADS-B
06:36PM 47.3338 -122.4580 North 268 308 9,900  Level FlightAware ADS-B
06:36PM 47.3338 -122.4581 North 267 307 9,900 -1,020 Level FlightAware ADS-B (KPAE)
06:37PM 47.3421 -122.4580 North 266 306 9,800 -1,200 Descending FlightAware ADS-B
06:37PM 47.3488 -122.4580 359° North 266 306 9,700 -1,440 Descending FlightAware ADS-B
06:37PM 47.3581 -122.4581 359° North 262 302 9,400 -1,620 Descending FlightAware ADS-B (KPAE)
06:37PM 47.3675 -122.4580 358° North 261 300 9,300 -960 Descending FlightAware ADS-B
06:37PM 47.3855 -122.4590 359° North 252 290 9,100 -780 Descending FlightAware ADS-B
06:37PM 47.3829 -122.4591 359° North 250 288 9,100 -1,380 Level FlightAware ADS-B (KPAE)
06:37PM 47.4051 -122.4600 359° North 240 276 8,700 -1,740 Descending FlightAware ADS-B
06:38PM 47.4170 -122.4600 358° North 236 272 8,300 -2,220 Descending FlightAware ADS-B
06:38PM 47.4226 -122.4606 358° North 232 267 8,000 -2,040 Descending FlightAware ADS-B (KPAE)
06:38PM 47.4335 -122.4610 358° North 229 264 7,800 -1,800 Descending FlightAware ADS-B
06:38PM 47.4468 -122.4616 359° North 222 255 7,400 -2,040 Descending FlightAware ADS-B (KPAE)
06:38PM 47.4493 -122.4620 359° North 221 254 7,300 -1,380 Descending FlightAware ADS-B
06:38PM 47.4651 -122.4620 359° North 219 252 7,000 -1,440 Descending FlightAware ADS-B
06:38PM 47.4645 -122.4621 359° North 218 251 6,900 -2,040 Descending FlightAware ADS-B (KPAE)
06:39PM 47.4749 -122.4620 359° North 214 246 6,700 -1,920 Descending FlightAware ADS-B
06:39PM 47.4856 -122.4630 359° North 211 243 6,300 -2,040 Descending FlightAware ADS-B
06:39PM 47.4972 -122.4630 358° North 208 239 5,900 -2,160 Descending FlightAware ADS-B
06:39PM 47.5018 -122.4633 358° North 207 238 5,700 -2,040 Descending FlightAware ADS-B (KPAE)
06:39PM 47.5120 -122.4640 358° North 207 238 5,400 -2,100 Descending FlightAware ADS-B
06:39PM 47.5131 -122.4640 358° North 207 238 5,000 -2,520 Descending FlightAware ADS-B (KPAE)
06:39PM 47.5238 -122.4650 358° North 208 239 4,900 -2,340 Descending FlightAware ADS-B
06:40PM 47.5384 -122.4650 359° North 208 239 4,300 -2,160 Descending FlightAware ADS-B
06:40PM 47.5384 -122.4650 360° North 207 238 4,300 -2,040 Level FlightAware ADS-B (KPAE)
06:40PM 47.5442 -122.4650 North 206 237 4,100 -1,920 Descending FlightAware ADS-B
06:40PM 47.5548 -122.4650 North 205 236 3,800 -2,040 Descending FlightAware ADS-B
06:40PM 47.5582 -122.4650 359° North 204 235 3,600 -2,280 Descending FlightAware ADS-B
06:40PM 47.5621 -122.4650 353° North 203 234 3,500 -1,680 Descending FlightAware ADS-B
06:40PM 47.5676 -122.4670 344° North 199 229 3,300 -2,520 Descending FlightAware ADS-B
06:40PM 47.5730 -122.4710 338° Northwest 199 229 3,000 -2,580 Descending FlightAware ADS-B
06:40PM 47.5741 -122.4711 337° Northwest 199 229 3,000 -2,280 Level FlightAware ADS-B (KPAE)
06:40PM 47.5799 -122.4750 333° Northwest 199 229 2,700 -2,220 Descending FlightAware ADS-B
06:41PM 47.5899 -122.4830 331° Northwest 206 237 2,300 -1,140 Descending FlightAware ADS-B
06:41PM 47.6070 -122.4940 346° North 204 235 2,100 -540 Descending FlightAware ADS-B
06:41PM 47.6110 -122.4950 352° North 203 234 2,100  Level FlightAware ADS-B
06:41PM 47.6297 -122.4900 33° Northeast 203 234 2,100  Level FlightAware ADS-B
06:41PM 47.6349 -122.4820 47° Northeast 202 232 2,100  Level FlightAware ADS-B
06:42PM 47.6366 -122.4780 52° Northeast 202 232 2,100  Level FlightAware ADS-B
06:42PM 47.6394 -122.4720 56° Northeast 202 232 2,100  Level FlightAware ADS-B
06:42PM 47.6408 -122.4690 60° Northeast 202 232 2,100  Level FlightAware ADS-B
06:42PM 47.6426 -122.4610 74° East 201 231 2,100  Level FlightAware ADS-B
06:42PM 47.6416 -122.4470 79° East 200 230 2,100 -300 Level FlightAware ADS-B
06:42PM 47.6429 -122.4538 122° Southeast 178 205 2,000 -420 Descending FlightAware ADS-B (KPAE)
06:42PM 47.6355 -122.4300 123° Southeast 178 205 2,000  Level FlightAware ADS-B
06:42PM 47.6323 -122.4240 127° Southeast 174 200 2,000  Level FlightAware ADS-B
06:42PM 47.6290 -122.4177 128° Southeast 172 198 2,000  Level FlightAware ADS-B (KPAE)
06:43PM 47.6257 -122.4110 128° Southeast 168 193 2,000 -360 Level FlightAware ADS-B
06:43PM 47.6195 -122.4000 129° Southeast 164 189 1,900 -420 Descending FlightAware ADS-B
06:43PM 47.6188 -122.3989 129° Southeast 164 189 1,900 -900 Level FlightAware ADS-B (KPAE)
06:43PM 47.6126 -122.3880 131° Southeast 162 186 1,700 -900 Descending FlightAware ADS-B
06:43PM 47.6081 -122.3806 133° Southeast 161 185 1,600 -900 Descending FlightAware ADS-B (KPAE)
06:43PM 47.6022 -122.3710 133° Southeast 161 185 1,400 -960 Descending FlightAware ADS-B
06:43PM 47.5992 -122.3660 134° Southeast 163 188 1,300 -840 Descending FlightAware ADS-B (KPAE)
06:44PM 47.5619 -122.3306 134° Southeast 161 185 500 17,880 Descending Seattle Center
06:45PM 47.5281 -122.3003 149° Southeast 160 184 38,000 36,240 Climbing Seattle Center
06:48PM 47.2797 -122.3263 145° Southeast  Level FlightAware Approximate
06:55PM 46.4422 -121.4662 144° Southeast  Level FlightAware Approximate
06:56PM 46.3238 -121.3417 144° Southeast  Level FlightAware Approximate
06:57PM 46.2040 -121.2206 145° Southeast  Level FlightAware Approximate
06:58PM 46.0839 -121.1002 145° Southeast  Level FlightAware Approximate
06:59PM 45.9638 -120.9800 145° Southeast  Level FlightAware Approximate
07:00PM 45.8436 -120.8604 145° Southeast  Level FlightAware Approximate
07:01PM 45.7234 -120.7412 145° Southeast  Level FlightAware Approximate
07:02PM 45.6030 -120.6225 145° Southeast  Level FlightAware Approximate
07:03PM 45.4824 -120.5043 145° Southeast  Level FlightAware Approximate
07:04PM 45.3618 -120.3866 146° Southeast  Level FlightAware Approximate
07:05PM 45.2410 -120.2694 146° Southeast  Level FlightAware Approximate
07:06PM 45.1202 -120.1527 146° Southeast  Level FlightAware Approximate
07:07PM 44.9984 -120.0382 146° Southeast  Level FlightAware Approximate
07:08PM 44.8763 -119.9246 147° Southeast  Level FlightAware Approximate
07:09PM 44.7541 -119.8113 147° Southeast  Level FlightAware Approximate
07:10PM 44.6350 -119.6989 25° Northeast  Level FlightAware Approximate
07:11PM 44.7671 -119.6109 25° Northeast  Level FlightAware Approximate
07:12PM 44.8983 -119.5199 26° Northeast  Level FlightAware Approximate
07:13PM 45.0293 -119.4281 26° Northeast  Level FlightAware Approximate
07:14PM 45.1597 -119.3346 28° Northeast  Level FlightAware Approximate
07:15PM 45.2891 -119.2379 28° Northeast  Level FlightAware Approximate
07:16PM 45.4184 -119.1408 28° Northeast  Level FlightAware Approximate
07:17PM 45.5473 -119.0423 29° Northeast  Level FlightAware Approximate
07:18PM 45.6748 -118.9401 29° Northeast  Level FlightAware Approximate
07:19PM 45.6629 -118.7402 99° East  Level FlightAware Approximate
07:20PM 45.6406 -118.5335 99° East  Level FlightAware Approximate
07:21PM 45.6216 -118.3268 101° East  Level FlightAware Approximate
07:22PM 45.5946 -118.1214 101° East  Level FlightAware Approximate
07:23PM 45.5672 -117.9162 101° East  Level FlightAware Approximate
07:24PM 45.5394 -117.7112 101° East  Level FlightAware Approximate
07:25PM 45.5172 -117.5050 98° East  Level FlightAware Approximate
07:26PM 45.4906 -117.2998 100° East  Level FlightAware Approximate
07:27PM 45.4635 -117.0949 101° East  Level FlightAware Approximate
07:28PM 45.4360 -116.8902 101° East  Level FlightAware Approximate
07:29PM 45.4081 -116.6857 101° East  Level FlightAware Approximate
07:30PM 45.3799 -116.4814 101° East  Level FlightAware Approximate
07:31PM 45.3514 -116.2773 101° East  Level FlightAware Approximate
07:32PM 45.3226 -116.0734 101° East  Level FlightAware Approximate
07:33PM 45.2937 -115.8696 101° East  Level FlightAware Approximate
07:34PM 45.2645 -115.6660 101° East  Level FlightAware Approximate
07:35PM 45.2350 -115.4626 102° East  Level FlightAware Approximate
07:36PM 45.2050 -115.2595 102° East  Level FlightAware Approximate
07:37PM 45.1747 -115.0565 102° East  Level FlightAware Approximate
07:38PM 45.1441 -114.8538 102° East  Level FlightAware Approximate
07:39PM 45.1118 -114.6517 103° East  Level FlightAware Approximate
07:40PM 45.0784 -114.4500 103° East  Level FlightAware Approximate
07:41PM 45.0446 -114.2486 103° East  Level FlightAware Approximate
07:42PM 45.0311 -114.1141 304° West  Level FlightAware Approximate
07:43PM 45.1119 -114.2866 304° West  Level FlightAware Approximate
07:44PM 45.1925 -114.4596 303° West  Level FlightAware Approximate
07:45PM 45.2728 -114.6331 303° West  Level FlightAware Approximate
07:46PM 45.3528 -114.8072 303° West  Level FlightAware Approximate
07:47PM 45.4326 -114.9816 303° West  Level FlightAware Approximate
07:48PM 45.5103 -115.1583 302° West  Level FlightAware Approximate
07:49PM 45.5877 -115.3354 302° West  Level FlightAware Approximate
07:50PM 45.6648 -115.5130 302° West  Level FlightAware Approximate
07:51PM 45.7416 -115.6911 302° West  Level FlightAware Approximate
07:52PM 45.8182 -115.8697 302° West  Level FlightAware Approximate
07:53PM 45.8945 -116.0488 302° West  Level FlightAware Approximate
07:54PM 45.9705 -116.2283 301° West  Level FlightAware Approximate
07:55PM 46.0463 -116.4084 301° West  Level FlightAware Approximate
07:56PM 46.1217 -116.5890 301° West  Level FlightAware Approximate
07:57PM 46.1969 -116.7700 301° West  Level FlightAware Approximate
07:58PM 46.2718 -116.9516 301° West  Level FlightAware Approximate
07:59PM 46.3464 -117.1336 301° West  Level FlightAware Approximate
08:00PM 46.4204 -117.3163 300° West  Level FlightAware Approximate
08:01PM 46.4941 -117.4996 300° West  Level FlightAware Approximate
08:02PM 46.5675 -117.6834 300° West  Level FlightAware Approximate
08:03PM 46.6406 -117.8677 300° West  Level FlightAware Approximate
08:04PM 46.7135 -118.0525 300° West  Level FlightAware Approximate
08:05PM 46.7860 -118.2378 300° West  Level FlightAware Approximate
08:06PM 46.8592 -118.4228 300° West  Level FlightAware Approximate
08:07PM 46.9319 -118.6084 298° West  Level FlightAware Approximate
08:08PM 47.0010 -118.7971 299° West  Level FlightAware Approximate
08:09PM 47.0767 -118.9801 296° West  Level FlightAware Approximate
08:10PM 47.1462 -119.1688 302° West  Level FlightAware Approximate
08:11PM 47.2000 -119.3167 296° West  Level FlightAware Approximate
08:12PM 47.2086 -119.3191 296° West  Level Estimated
08:13PM 47.2086 -119.3191 296° West  Level Estimated
08:14PM 47.2086 -119.3191 296° West  Level Estimated
08:15PM 47.2086 -119.3191 296° West  Level Estimated
08:16PM 47.2086 -119.3191 296° West  Level Estimated
08:17PM 47.2086 -119.3191 296° West  Level Estimated
08:18PM 47.2086 -119.3191 296° West  Level Estimated
08:19PM 47.2086 -119.3191 296° West  Level Estimated
08:20PM 47.2086 -119.3191 296° West  Level Estimated
08:21PM 47.2086 -119.3191 296° West  Level Estimated
08:22PM 47.2086 -119.3191 296° West  Level Estimated
08:23PM 47.2086 -119.3191 296° West  Level Estimated
08:24PM 47.2086 -119.3191 296° West  Level Estimated
08:25PM 47.2086 -119.3191 296° West  Level Estimated
08:26PM 47.2086 -119.3191 296° West  Level Estimated
08:27PM 47.2086 -119.3191 296° West  Level Estimated
08:28PM 47.2086 -119.3191 296° West  Level Estimated
08:29PM 47.2086 -119.3191 296° West  Level Estimated
08:30PM 47.2086 -119.3191 296° West  Level Estimated
08:31PM 47.2086 -119.3191 296° West  Level Estimated
08:32PM 47.2086 -119.3191 296° West  Level Estimated
08:33PM 47.2086 -119.3191 296° West  Level Estimated
08:34PM 47.2086 -119.3191 296° West  Level Estimated
08:35PM 47.2086 -119.3191 296° West  Level Estimated
08:36PM 47.2086 -119.3191 296° West  Level Estimated
08:37PM 47.2086 -119.3191 296° West  Level Estimated
08:38PM 47.2086 -119.3191 296° West  Level Estimated
08:39PM 47.2086 -119.3191 296° West  Level Estimated
08:40PM 47.2086 -119.3191 296° West  Level Estimated
08:41PM 47.2086 -119.3191 296° West  Level Estimated
08:42PM 47.2086 -119.3191 296° West  Level Estimated
08:43PM 47.2086 -119.3191 296° West  Level Estimated
08:44PM 47.2086 -119.3191 296° West  Level Estimated
08:45PM 47.2086 -119.3191 296° West  Level Estimated
08:46PM 47.2086 -119.3191 296° West  Level Estimated
08:47PM 47.2086 -119.3191 296° West  Level Estimated
08:48PM 47.2086 -119.3191 296° West  Level Estimated
08:49PM 47.2086 -119.3191 296° West  Level Estimated
08:50PM 47.2086 -119.3191 296° West  Level Estimated
08:51PM 47.2086 -119.3191 296° West  Level Estimated
08:52PM 47.2086 -119.3191 296° West  Level Estimated
08:53PM 47.2086 -119.3191 296° West  Level Estimated
08:54PM 47.2086 -119.3191 296° West  Level Estimated
08:55PM 47.2086 -119.3191 296° West  Level Estimated
08:56PM 47.2086 -119.3191 296° West  Level Estimated
08:57PM 47.2086 -119.3191 296° West  Level Estimated
08:58PM 47.2086 -119.3191 296° West  Level Estimated
08:59PM 47.2086 -119.3191 296° West  Level Estimated
09:00PM 47.2086 -119.3191 296° West  Level Estimated
09:01PM 47.2086 -119.3191 296° West  Level Estimated
09:02PM 47.2086 -119.3191 296° West  Level Estimated
09:03PM 47.2086 -119.3191 296° West  Level Estimated
09:04PM 47.2086 -119.3191 296° West  Level Estimated
09:05PM 47.2086 -119.3191 296° West  Level Estimated
09:06PM 47.2086 -119.3191 296° West  Level Estimated
09:07PM 47.2086 -119.3191 296° West  Level Estimated
09:08PM 47.2086 -119.3191 296° West  Level Estimated
09:09PM 47.2086 -119.3191 296° West  Level Estimated
09:10PM 47.2086 -119.3191 296° West  Level Estimated
09:11PM 47.2086 -119.3191 296° West  Level Estimated
09:12PM 47.2086 -119.3191 296° West  Level Estimated
09:13PM 47.2086 -119.3191 296° West  Level Estimated
09:14PM 47.2086 -119.3191 296° West  Level Estimated
09:15PM 47.2086 -119.3191 296° West  Level Estimated
09:16PM 47.2086 -119.3191 296° West  Level Estimated
09:17PM 47.2086 -119.3191 296° West  Level Estimated
09:18PM 47.2086 -119.3191 296° West  Level Estimated
09:19PM 47.2086 -119.3191 296° West  Level Estimated
09:20PM 47.2086 -119.3191 296° West  Level Estimated
09:21PM 47.2086 -119.3191 296° West  Level Estimated